Strait of Georgia - south of Nanaimo: Past 24 Hour Conditions

 

Halibut Bank - 46146

03:00 AM PST 20 December 2014Buoy position: 49.34N 123.72W
Disclaimer

This table is a summary of hourly weather conditions for the past 24 hours.
Please note that these observations might not always be representative of weather conditions over their associated marine area.

Date / Time
(PST)
Wind(knots) Wave height(m) Wave period(s) Pressure(kPa) Air tempC) Water tempC)
20 December 2014
3:00 ESE 25 gust 29 1.0 4.0 100.4 9 9
2:00 E 23 gust 29 0.9 4.0 100.5 9 9
1:00 E 23 gust 27 0.8 3.0 100.6 9 9
0:00 E 21 gust 27 0.8 4.0 100.8 9 9
19 December 2014
23:00 ESE 19 gust 23 0.7 4.0 100.9 9 9
22:00 ESE 19 gust 21 0.7 4.0 100.9 9 9
21:00 ESE 18 gust 21 0.7 4.0 101.0 9 9
20:00 ESE 16 gust 19 0.6 4.0 101.0 9 9
19:00 ESE 18 gust 21 0.6 4.0 101.1 9 9
18:00 ESE 16 gust 19 0.5 4.0 101.1 9 9
17:00 ESE 16 gust 18 0.5 4.0 101.2 9 9
16:00 ESE 16 gust 19 0.7 4.0 101.2 8 9
15:00 ESE 16 gust 19 0.8 4.0 101.1 8 9
14:00 SE 18 gust 21 0.7 4.0 101.1 9 9
13:00 ESE 18 gust 21 0.6 3.0 101.1 9 9
12:00 ESE 19 gust 25 0.5 3.0 101.1 8 9
11:00 ESE 18 gust 19 0.4 3.0 101.1 8 9
10:00 E 14 gust 16 0.4 3.0 101.1 8 8
9:00 SSE 12 gust 14 0.4 3.0 101.0 9 8
8:00 SSE 12 gust 16 0.4 3.0 100.9 9 8
7:00 SE 12 gust 14 0.4 3.0 100.8 9 9
6:00 SE 16 gust 18 0.4 3.0 100.7 9 9
5:00 ESE 16 gust 18 0.5 3.0 100.7 9 9
4:00 SE 14 gust 16 0.5 3.0 100.7 9 9
3:00 SE 16 gust 18 0.5 4.0 100.6 9 9
Map of Pacific - Georgia Basin marine weather areas Tsawwassen Ferry Terminal Sentry Shoal - 46131 Halibut Bank - 46146 La Perouse Bank - 46206 Discovery Island Esquimalt Harbour Kelp Reefs Malahat Race Rocks Lightstation Saturna Island Sheringham Point University of Victoria Victoria Gonzales Victoria Int'l Airport Ballenas Islands Campbell River Airport Comox Airport Entrance Island Fanny Island Nanaimo Airport Sisters Islets Estevan Point Tofino Airport Grief Point Powell River Airport Sechelt Point Atkinson Sand Heads Lightstation Vancouver Harbour Vancouver Int'l Airport West Vancouver Port Alberni Howe Sound - Pam Rocks Squamish Airport
Legend:
buoy Buoy
land station Land Station

Pacific - Georgia Basin Area

Another Region

What we are doing

Date modified: